РПИ Самарканд

Руководство

Evgeny Vygornitsky*

Куратор

Vitaliy Alekseyev

Помощник куратора по Узбекистану
Инструкторы РПИ
Evgeny Vygornitsky (Supervisor)
Vitaliy Alekseyev (Instructor)
Входит в состав
Центральная Азия

Диспетчеры РПИ

Диспетчер Рейтинг Допуски *
Vitaliy Alekseyev Instructor UTSD_CTR

Аэропорты РПИ

ICAO Город Название Погода
UTSB Бухара Бухара UTSB 100830Z 02004KT 340V080 CAVOK 02/M07 Q1032 R01/CLRD70 NOSIG
UTSS Самарканд Самарканд UTSS 100830Z 05004KT 010V100 9999 NSC 00/M06 Q1028 R09/70D NOSIG
UTST Термез Термез UTST 100830Z VRB02KT 0800 R25/0800 FG VV002 01/M00 Q1030 R25/CLRD70 NOSIG RMK BASE200
UTSK Карши Карши-Ханабад UTSK 100830Z 34004KT 300V360 CAVOK 05/M02 Q1030 R16/CLRD70
UTSA Навои Навои UTSA 100830Z 05004KT 010V080 7000 NSC 03/M06 Q1031 R07/CLRD70 NOSIG